Time;durP1;ratioP1;P1;durP2;ratioP2;P2;SDS_P1;SDS_P2;PMS_P1;PMS_P2;Temp;Humidity;BMP_temperature;BMP_pressure;BME280_temperature;BME280_humidity;BME280_pressure;Samples;Min_cycle;Max_cycle;Signal;HPM_P1;HPM_P2
2022/09/20 00:01:32;;;;;;;0.80;0.52;;;;;;;17.48;43.90;100855.38;5070876;28;20056;-77
2022/09/20 00:04:03;;;;;;;1.20;0.77;;;;;;;17.62;40.89;100852.47;5071986;28;20060;-77
2022/09/20 00:06:34;;;;;;;1.73;0.60;;;;;;;17.69;40.16;100852.84;5070276;28;20041;-77
2022/09/20 00:09:04;;;;;;;0.40;0.40;;;;;;;17.75;38.85;100851.56;5051838;28;20045;-77
2022/09/20 00:11:33;;;;;;;0.77;0.55;;;;;;;17.66;39.29;100853.47;5063801;28;20608;-77
2022/09/20 00:14:04;;;;;;;0.38;0.28;;;;;;;17.88;39.49;100865.59;5070465;28;20036;-77
2022/09/20 00:16:37;;;;;;;0.40;0.40;;;;;;;17.53;37.83;100858.00;5071363;28;20055;-78
2022/09/20 00:19:06;;;;;;;1.52;0.35;;;;;;;17.78;36.87;100858.41;5070365;28;20048;-77
2022/09/20 00:21:36;;;;;;;0.30;0.30;;;;;;;17.81;37.59;100855.81;5068252;28;20036;-77
2022/09/20 00:24:05;;;;;;;0.40;0.40;;;;;;;17.82;37.32;100857.44;5071253;28;20048;-77
2022/09/20 00:26:33;;;;;;;0.28;0.20;;;;;;;17.86;37.46;100857.59;5070091;28;20044;-77
2022/09/20 00:29:02;;;;;;;0.32;0.28;;;;;;;17.61;36.48;100865.53;5068572;28;20039;-77
2022/09/20 00:31:30;;;;;;;0.80;0.35;;;;;;;17.85;36.77;100867.03;5050736;28;20060;-77
2022/09/20 00:36:44;;;;;;;1.00;0.40;;;;;;;17.79;36.62;100858.06;5067973;28;20044;-77
2022/09/20 00:39:16;;;;;;;0.60;0.30;;;;;;;17.75;37.53;100851.56;5074131;28;20395;-77
2022/09/20 00:41:44;;;;;;;2.13;0.60;;;;;;;17.83;38.93;100852.69;5074375;28;20047;-77
2022/09/20 00:45:09;;;;;;;2.42;0.52;;;;;;;17.79;37.26;100860.81;5075304;28;20071;-77
2022/09/20 00:47:41;;;;;;;0.50;0.40;;;;;;;17.68;38.85;100843.72;5032741;28;20053;-77
2022/09/20 00:50:32;;;;;;;0.30;0.30;;;;;;;17.79;39.17;100848.97;5040125;28;20045;-77
2022/09/20 00:53:08;;;;;;;0.80;0.47;;;;;;;17.73;38.98;100842.75;5042762;28;20071;-77
2022/09/20 00:55:41;;;;;;;0.50;0.22;;;;;;;17.90;38.76;100841.16;5057409;28;20037;-77
2022/09/20 00:58:09;;;;;;;0.60;0.60;;;;;;;18.16;38.44;100843.16;5058254;28;20395;-77
2022/09/20 01:00:38;;;;;;;0.50;0.40;;;;;;;18.29;38.10;100841.38;5056679;28;20049;-77
2022/09/20 01:03:09;;;;;;;1.33;0.50;;;;;;;18.33;38.39;100853.44;5057807;28;20399;-77
2022/09/20 01:05:39;;;;;;;0.90;0.40;;;;;;;18.29;38.77;100844.13;5060640;28;20045;-77
2022/09/20 01:08:09;;;;;;;0.38;0.28;;;;;;;18.26;38.08;100840.06;5062457;28;20056;-78
2022/09/20 01:10:37;;;;;;;1.63;0.40;;;;;;;18.29;38.47;100847.72;5065075;28;20430;-77
2022/09/20 01:13:05;;;;;;;0.35;0.30;;;;;;;18.36;38.78;100839.75;5062076;28;20037;-77
2022/09/20 01:15:36;;;;;;;0.20;0.20;;;;;;;18.37;37.88;100848.84;5052301;28;20052;-77
2022/09/20 01:18:06;;;;;;;0.25;0.25;;;;;;;18.39;38.31;100850.16;5053857;28;20124;-77
2022/09/20 01:20:37;;;;;;;0.30;0.30;;;;;;;18.44;37.01;100857.50;5063440;28;20044;-77
2022/09/20 01:23:17;;;;;;;0.30;0.30;;;;;;;18.44;37.87;100860.28;5065488;28;20044;-77
2022/09/20 01:26:03;;;;;;;0.70;0.20;;;;;;;18.56;38.32;100854.06;5058603;28;20508;-77
2022/09/20 01:28:32;;;;;;;0.35;0.20;;;;;;;18.54;37.21;100856.34;5054605;28;20045;-77
2022/09/20 01:31:30;;;;;;;1.13;0.25;;;;;;;18.58;38.38;100853.75;5053953;28;20048;-78
2022/09/20 01:34:00;;;;;;;0.40;0.20;;;;;;;18.67;38.21;100855.34;5054457;28;20052;-77
2022/09/20 01:36:38;;;;;;;0.70;0.40;;;;;;;18.60;39.21;100856.97;5054516;28;20049;-78
2022/09/20 01:39:25;;;;;;;0.35;0.35;;;;;;;18.58;38.50;100862.06;5054337;28;20052;-78
2022/09/20 01:42:03;;;;;;;1.20;0.40;;;;;;;18.62;39.17;100863.03;5060292;28;20051;-77
2022/09/20 01:44:49;;;;;;;1.92;0.40;;;;;;;18.50;39.74;100870.06;5061290;28;20407;-77
2022/09/20 01:47:32;;;;;;;0.20;0.20;;;;;;;18.48;39.32;100864.00;5065498;28;20391;-78
2022/09/20 01:50:30;;;;;;;0.10;0.10;;;;;;;18.53;40.26;100865.81;5072833;28;20491;-78
2022/09/20 01:52:58;;;;;;;35.42;2.83;;;;;;;18.54;40.17;100864.66;5057447;28;20044;-77
2022/09/20 01:56:03;;;;;;;0.70;0.63;;;;;;;18.45;41.31;100870.22;5074181;28;20487;-77
2022/09/20 01:59:07;;;;;;;3.95;0.63;;;;;;;18.42;40.64;100865.31;5068172;28;20053;-77
2022/09/20 02:02:22;;;;;;;0.28;0.25;;;;;;;18.33;41.45;100864.50;5073288;28;20057;-78
2022/09/20 02:05:32;;;;;;;0.90;0.30;;;;;;;18.29;40.37;100867.13;5055567;28;20052;-77
2022/09/20 02:08:42;;;;;;;0.70;0.40;;;;;;;18.47;40.50;100873.47;5068318;28;20052;-78
2022/09/20 02:11:20;;;;;;;0.38;0.30;;;;;;;18.29;40.63;100875.44;5030587;28;20057;-77
2022/09/20 02:14:02;;;;;;;0.50;0.40;;;;;;;18.41;40.48;100872.00;5031719;28;20049;-78
2022/09/20 02:16:35;;;;;;;0.38;0.38;;;;;;;18.35;40.88;100870.53;5058969;28;20048;-78
2022/09/20 02:19:30;;;;;;;1.17;0.60;;;;;;;18.25;41.00;100875.28;5073740;28;20402;-77
2022/09/20 02:22:25;;;;;;;0.57;0.50;;;;;;;18.21;42.20;100881.78;5073408;28;20119;-78
2022/09/20 02:25:31;;;;;;;0.50;0.50;;;;;;;18.04;42.73;100879.78;5077357;28;20060;-78
2022/09/20 02:28:20;;;;;;;0.30;0.30;;;;;;;18.01;41.97;100875.69;5066478;28;20051;-78
2022/09/20 02:31:05;;;;;;;1.70;0.50;;;;;;;17.90;44.16;100864.13;5073325;28;20036;-78
2022/09/20 02:33:39;;;;;;;0.30;0.30;;;;;;;17.94;44.37;100876.16;5066499;28;20044;-77
2022/09/20 02:36:28;;;;;;;0.88;0.30;;;;;;;18.01;44.59;100872.94;5071462;28;20055;-77
2022/09/20 02:39:09;;;;;;;0.52;0.30;;;;;;;17.92;45.43;100869.31;5073374;28;20051;-77
2022/09/20 02:42:04;;;;;;;0.70;0.40;;;;;;;17.83;46.18;100863.75;5075878;28;20044;-77
2022/09/20 02:44:45;;;;;;;0.40;0.30;;;;;;;17.98;46.31;100868.84;5074486;28;20068;-78
2022/09/20 02:47:31;;;;;;;1.85;0.25;;;;;;;18.19;45.64;100861.91;5077572;28;20048;-77
2022/09/20 02:50:37;;;;;;;0.30;0.30;;;;;;;18.19;46.47;100859.94;5060494;28;20041;-78
2022/09/20 02:53:32;;;;;;;0.20;0.20;;;;;;;18.30;46.24;100865.16;5072130;28;20504;-78
2022/09/20 02:56:34;;;;;;;1.08;0.40;;;;;;;18.16;46.67;100866.13;5072745;28;20543;-78
2022/09/20 02:59:20;;;;;;;0.30;0.30;;;;;;;18.25;46.57;100872.50;5064985;28;20526;-78
2022/09/20 03:02:14;;;;;;;0.52;0.50;;;;;;;18.09;46.65;100863.84;5083485;28;20393;-78
2022/09/20 03:05:08;;;;;;;0.30;0.20;;;;;;;18.29;47.11;100863.53;5072639;28;20048;-78
2022/09/20 03:08:01;;;;;;;1.90;0.40;;;;;;;18.43;46.89;100864.16;5072932;28;20049;-78
2022/09/20 03:10:42;;;;;;;0.43;0.30;;;;;;;18.40;46.52;100867.59;5081026;28;20075;-78
2022/09/20 03:13:14;;;;;;;0.75;0.40;;;;;;;18.44;47.20;100857.50;5084073;28;20056;-78
2022/09/20 03:16:11;;;;;;;0.45;0.30;;;;;;;18.36;46.55;100855.53;5072548;28;20483;-77
2022/09/20 03:19:18;;;;;;;2.30;0.30;;;;;;;18.33;46.91;100856.22;5071234;28;20487;-78
2022/09/20 03:22:09;;;;;;;0.93;0.30;;;;;;;18.34;47.32;100858.63;5055894;28;20041;-78
2022/09/20 03:25:06;;;;;;;0.10;0.10;;;;;;;18.24;47.48;100859.78;5072311;28;20036;-77
2022/09/20 03:27:52;;;;;;;0.75;0.32;;;;;;;18.28;47.60;100862.69;5071014;28;20055;-78
2022/09/20 03:30:36;;;;;;;1.13;0.85;;;;;;;18.13;47.36;100861.22;5072400;28;20502;-77
2022/09/20 03:33:39;;;;;;;2.63;0.40;;;;;;;18.16;47.04;100866.13;5081376;28;20066;-78
2022/09/20 03:36:35;;;;;;;1.08;0.22;;;;;;;18.20;47.13;100860.75;5045088;28;20040;-78
2022/09/20 03:39:13;;;;;;;0.80;0.45;;;;;;;18.11;46.87;100855.22;5083261;28;20055;-78
2022/09/20 03:41:49;;;;;;;0.22;0.22;;;;;;;18.03;46.79;100873.41;5075709;28;20055;-78
2022/09/20 03:44:59;;;;;;;0.50;0.50;;;;;;;17.90;47.85;100866.91;5056622;28;20052;-78
2022/09/20 03:47:51;;;;;;;0.28;0.20;;;;;;;17.82;48.61;100862.97;5060103;28;20521;-78
2022/09/20 03:50:48;;;;;;;0.38;0.38;;;;;;;17.75;48.38;100865.41;5054053;28;20044;-78
2022/09/20 03:53:31;;;;;;;1.02;0.40;;;;;;;17.65;48.95;100866.50;5070977;28;20052;-78
2022/09/20 03:56:19;;;;;;;1.65;0.30;;;;;;;17.79;48.39;100868.34;5071934;28;20048;-78
2022/09/20 03:59:10;;;;;;;1.95;0.60;;;;;;;17.79;47.67;100868.34;5072082;28;20044;-78
2022/09/20 04:01:41;;;;;;;0.68;0.30;;;;;;;17.67;47.59;100869.78;5070212;28;20037;-78
2022/09/20 04:04:39;;;;;;;0.40;0.20;;;;;;;17.61;46.38;100868.28;5078046;28;20045;-78
2022/09/20 04:07:44;;;;;;;0.57;0.30;;;;;;;17.61;46.81;100862.75;5072562;28;20044;-78
2022/09/20 04:10:31;;;;;;;2.30;0.30;;;;;;;17.50;45.49;100858.66;5074144;28;20486;-79
2022/09/20 04:13:11;;;;;;;0.75;0.30;;;;;;;17.48;44.39;100861.72;5071034;28;20056;-78
2022/09/20 04:15:57;;;;;;;2.60;0.40;;;;;;;17.61;44.99;100860.00;5068071;28;20048;-77
2022/09/20 04:18:33;;;;;;;1.15;0.20;;;;;;;17.55;44.02;100859.31;5080408;28;20043;-78
2022/09/20 04:21:15;;;;;;;2.08;0.45;;;;;;;17.37;44.07;100869.50;5074956;28;20048;-78
2022/09/20 04:23:53;;;;;;;0.77;0.30;;;;;;;17.63;42.79;100876.25;5060093;28;20122;-78
2022/09/20 04:26:35;;;;;;;1.58;0.60;;;;;;;17.62;43.57;100880.16;5074477;28;20052;-77
2022/09/20 04:29:38;;;;;;;1.20;0.30;;;;;;;17.64;43.52;100878.69;5073680;28;20040;-78
2022/09/20 04:32:15;;;;;;;1.02;0.52;;;;;;;17.56;44.14;100879.50;5074373;28;20055;-78
2022/09/20 04:37:38;;;;;;;0.60;0.50;;;;;;;17.60;45.05;100888.81;5081750;28;20051;-78
2022/09/20 04:40:37;;;;;;;0.95;0.52;;;;;;;17.61;45.25;100890.44;5062782;28;20037;-77
2022/09/20 04:43:56;;;;;;;2.10;0.80;;;;;;;17.73;46.25;100896.16;5071952;28;20514;-81
2022/09/20 04:46:54;;;;;;;0.95;0.77;;;;;;;18.23;44.93;100899.69;5087450;28;20052;-80
2022/09/20 04:50:14;;;;;;;0.95;0.70;;;;;;;18.25;45.14;100899.38;5080655;28;20044;-80
2022/09/20 04:53:04;;;;;;;0.77;0.77;;;;;;;18.58;44.42;100895.31;5054675;28;20431;-80
2022/09/20 04:55:54;;;;;;;0.98;0.30;;;;;;;18.52;44.83;100906.56;5087020;28;20047;-80
2022/09/20 04:58:39;;;;;;;0.68;0.40;;;;;;;18.66;44.39;100908.34;5078050;28;20040;-80
2022/09/20 05:01:15;;;;;;;;;;;;;;;18.60;43.96;100912.41;5065178;28;20036;-80
2022/09/20 05:03:52;;;;;;;0.32;0.32;;;;;;;18.56;44.45;100917.00;5077896;28;19927;-82
2022/09/20 05:06:54;;;;;;;0.80;0.57;;;;;;;18.62;43.56;100924.00;5077662;28;20075;-81
2022/09/20 05:09:59;;;;;;;1.67;0.40;;;;;;;18.27;43.51;100927.56;5067931;28;20063;-81
2022/09/20 05:12:51;;;;;;;0.60;0.60;;;;;;;18.46;43.88;100913.41;5070727;28;20479;-81
2022/09/20 05:15:49;;;;;;;0.98;0.40;;;;;;;18.67;43.54;100943.22;5086352;28;20044;-81
2022/09/20 05:18:54;;;;;;;1.38;0.80;;;;;;;18.67;43.19;100941.28;5075656;28;20506;-80
2022/09/20 05:21:38;;;;;;;0.73;0.40;;;;;;;18.65;43.17;100937.19;5054973;28;20056;-80
2022/09/20 05:24:24;;;;;;;;;;;;;;;18.79;43.01;100937.03;5063611;28;20043;-81
2022/09/20 05:27:17;;;;;;;2.28;0.43;;;;;;;18.82;43.40;100953.00;5075398;28;19921;-82
2022/09/20 05:30:02;;;;;;;0.57;0.57;;;;;;;18.70;43.73;100944.53;5071419;28;20044;-81
2022/09/20 05:32:47;;;;;;;0.50;0.50;;;;;;;18.62;43.61;100958.06;5073969;28;20044;-81
2022/09/20 05:35:31;;;;;;;1.10;0.57;;;;;;;18.53;43.83;100955.28;5070082;28;20709;-81
2022/09/20 05:38:10;;;;;;;1.40;0.50;;;;;;;18.57;43.69;100958.22;5074426;28;20390;-81
2022/09/20 05:41:03;;;;;;;0.70;0.70;;;;;;;18.51;44.02;100967.84;5057407;28;20045;-81
2022/09/20 05:43:34;;;;;;;2.60;0.73;;;;;;;18.22;44.48;100953.47;5086663;28;20470;-81
2022/09/20 05:46:37;;;;;;;2.58;0.73;;;;;;;18.36;44.31;100955.28;5082316;28;20051;-81
2022/09/20 05:49:39;;;;;;;3.75;0.98;;;;;;;18.71;43.89;100977.47;5067007;28;20040;-80
2022/09/20 05:52:20;;;;;;;0.68;0.57;;;;;;;18.67;43.73;100984.78;5074644;28;20044;-81
2022/09/20 05:55:37;;;;;;;0.80;0.80;;;;;;;18.61;43.57;100980.56;5090432;28;20056;-81
2022/09/20 05:58:42;;;;;;;1.25;1.00;;;;;;;18.63;43.65;101000.47;5069355;28;20048;-81
2022/09/20 06:01:16;;;;;;;;;;;;;;;18.56;42.82;100997.38;5092462;28;20043;-81
2022/09/20 06:03:54;;;;;;;2.65;0.80;;;;;;;18.55;43.05;100996.53;5082163;28;19931;-81
2022/09/20 06:06:48;;;;;;;2.78;0.68;;;;;;;18.72;42.66;100992.94;5092023;28;20048;-81
2022/09/20 06:09:34;;;;;;;0.40;0.40;;;;;;;18.84;43.29;100995.09;5092135;28;20059;-80
2022/09/20 06:12:30;;;;;;;1.05;0.93;;;;;;;18.79;42.39;101003.56;5082909;28;20066;-81
2022/09/20 06:15:20;;;;;;;0.63;0.40;;;;;;;18.74;42.64;100996.25;5074313;28;20047;-81
2022/09/20 06:18:22;;;;;;;4.07;0.73;;;;;;;19.03;41.92;101002.28;5070120;28;20039;-81
2022/09/20 06:21:23;;;;;;;1.35;0.77;;;;;;;19.26;41.76;101004.88;5081500;28;20040;-81
2022/09/20 06:23:57;;;;;;;0.70;0.70;;;;;;;19.24;41.56;100988.56;5081774;28;20056;-81
2022/09/20 06:26:32;;;;;;;2.15;0.70;;;;;;;19.29;41.53;100996.69;5073114;28;20064;-81
2022/09/20 06:29:05;;;;;;;2.10;1.00;;;;;;;19.29;41.63;100993.94;5071520;28;20044;-81
2022/09/20 06:31:33;;;;;;;1.93;0.70;;;;;;;19.36;41.19;100992.59;5072724;28;20403;-81
2022/09/20 06:34:09;;;;;;;1.42;0.65;;;;;;;19.46;41.35;101004.16;5071182;28;20291;-81
2022/09/20 06:42:28;;;;;;;2.83;0.60;;;;;;;19.67;40.50;100991.53;5071730;28;20388;-81
2022/09/20 06:44:56;;;;;;;0.68;0.55;;;;;;;19.63;40.47;100996.94;5071745;28;20412;-81
2022/09/20 06:47:25;;;;;;;1.10;0.52;;;;;;;19.72;41.25;101005.22;5072341;28;20052;-81
2022/09/20 06:49:54;;;;;;;1.02;0.70;;;;;;;19.79;40.62;100991.66;5072873;28;20052;-81
2022/09/20 06:52:22;;;;;;;2.35;0.80;;;;;;;19.78;40.92;101000.31;5073028;28;20048;-81
2022/09/20 06:54:54;;;;;;;1.50;0.90;;;;;;;19.91;40.92;100998.47;5071555;28;20045;-81
2022/09/20 06:57:36;;;;;;;0.50;0.50;;;;;;;19.93;40.89;100993.38;5072799;28;20505;-81
2022/09/20 07:00:08;;;;;;;1.40;1.00;;;;;;;20.05;39.59;101004.66;5072708;28;20040;-81
2022/09/20 07:02:36;;;;;;;0.50;0.50;;;;;;;19.90;39.94;101003.22;5072721;28;20052;-81
2022/09/20 07:05:06;;;;;;;2.13;0.80;;;;;;;19.80;40.53;101012.72;5073320;28;20041;-81
2022/09/20 07:07:34;;;;;;;0.30;0.30;;;;;;;19.93;40.31;101012.81;5073302;28;20055;-81
2022/09/20 07:10:02;;;;;;;1.30;0.60;;;;;;;19.93;39.94;101004.47;5073646;28;20048;-81
2022/09/20 07:12:32;;;;;;;0.95;0.82;;;;;;;19.98;40.12;101012.66;5072412;28;20047;-81
2022/09/20 07:15:00;;;;;;;1.95;0.60;;;;;;;20.03;39.60;101006.94;5055449;28;20047;-81
2022/09/20 07:17:28;;;;;;;2.00;0.40;;;;;;;20.12;40.11;101006.88;5083340;28;20036;-81
2022/09/20 07:19:56;;;;;;;4.03;0.82;;;;;;;20.33;39.08;101008.91;5081720;28;20056;-81
2022/09/20 07:22:25;;;;;;;2.40;0.50;;;;;;;20.27;39.80;101009.09;5080369;28;20063;-81
2022/09/20 07:24:54;;;;;;;1.10;0.50;;;;;;;20.36;39.52;101006.25;5072298;28;20044;-81
2022/09/20 07:27:22;;;;;;;1.55;0.60;;;;;;;20.51;39.51;101018.75;5072210;28;20403;-81
2022/09/20 07:29:55;;;;;;;0.90;0.50;;;;;;;20.32;38.49;101010.84;5072350;28;20041;-81
2022/09/20 07:32:23;;;;;;;2.10;0.47;;;;;;;20.24;38.47;101009.75;5071886;28;20067;-81
2022/09/20 07:34:51;;;;;;;0.40;0.40;;;;;;;20.60;38.77;101006.75;5072103;28;20040;-81
2022/09/20 07:37:19;;;;;;;0.55;0.40;;;;;;;20.56;37.69;101012.16;5071912;28;20391;-81
2022/09/20 07:39:47;;;;;;;3.13;0.50;;;;;;;20.78;38.42;101013.78;5071640;28;20134;-81
2022/09/20 07:42:15;;;;;;;1.10;0.30;;;;;;;20.71;38.41;101015.53;5072177;28;20052;-81
2022/09/20 07:44:43;;;;;;;1.80;0.57;;;;;;;20.89;38.33;101024.56;5071968;28;20384;-80
2022/09/20 07:47:13;;;;;;;0.40;0.40;;;;;;;20.65;38.23;101018.50;5071172;28;20071;-81
2022/09/20 07:49:41;;;;;;;0.47;0.30;;;;;;;20.79;37.84;101022.97;5071994;28;20483;-81
2022/09/20 07:52:10;;;;;;;1.50;0.52;;;;;;;21.04;38.02;101023.13;5071961;28;20048;-82
2022/09/20 07:54:38;;;;;;;1.52;0.70;;;;;;;20.87;38.04;101026.88;5071954;28;20043;-80
2022/09/20 07:57:06;;;;;;;1.10;0.50;;;;;;;21.21;38.48;101034.09;5071977;28;20052;-80
2022/09/20 07:59:34;;;;;;;1.52;1.00;;;;;;;21.13;38.71;101025.81;5070672;28;20055;-80
2022/09/20 08:02:02;;;;;;;0.88;0.50;;;;;;;20.99;38.60;101031.66;5071958;28;20506;-80
2022/09/20 08:04:31;;;;;;;2.17;0.50;;;;;;;21.08;38.80;101030.44;5071771;28;20032;-80
2022/09/20 08:07:00;;;;;;;0.43;0.43;;;;;;;21.24;39.10;101028.97;5070750;28;20395;-81
2022/09/20 08:09:28;;;;;;;2.13;0.90;;;;;;;21.40;38.62;101024.41;5072007;28;20518;-80
2022/09/20 08:11:56;;;;;;;0.75;0.60;;;;;;;21.54;38.93;101037.19;5071776;28;20510;-80
2022/09/20 08:14:24;;;;;;;1.30;0.40;;;;;;;21.60;38.68;101021.88;5071763;28;20510;-80
2022/09/20 08:16:55;;;;;;;1.02;0.57;;;;;;;21.52;38.94;101028.38;5070389;28;20395;-80
2022/09/20 08:19:23;;;;;;;0.90;0.40;;;;;;;21.41;38.69;101030.78;5071727;28;20052;-80
2022/09/20 08:21:52;;;;;;;0.98;0.35;;;;;;;21.44;39.09;101033.69;5070284;28;20037;-80
2022/09/20 08:24:20;;;;;;;0.52;0.38;;;;;;;21.72;38.92;101043.41;5071579;28;20041;-80
2022/09/20 08:26:48;;;;;;;0.90;0.30;;;;;;;21.82;38.32;101036.59;5071521;28;20498;-80
2022/09/20 08:29:16;;;;;;;0.38;0.38;;;;;;;21.64;39.38;101033.97;5071569;28;20037;-80
2022/09/20 08:31:45;;;;;;;0.85;0.30;;;;;;;21.83;38.75;101043.78;5071407;28;20404;-81
2022/09/20 08:34:14;;;;;;;0.47;0.40;;;;;;;21.82;38.87;101053.28;5071461;28;20418;-80
2022/09/20 08:36:45;;;;;;;1.45;0.40;;;;;;;21.79;39.37;101038.09;5071536;28;20052;-80
2022/09/20 08:39:14;;;;;;;0.57;0.40;;;;;;;21.86;39.71;101043.09;5071722;28;20052;-80
2022/09/20 08:42:17;;;;;;;2.72;0.47;;;;;;;21.80;40.04;101047.28;5070526;28;20033;-80
2022/09/20 08:44:56;;;;;;;0.70;0.33;;;;;;;21.88;39.44;101037.97;5071579;28;20514;-80
2022/09/20 08:47:34;;;;;;;0.30;0.30;;;;;;;21.76;39.89;101036.00;5069983;28;20325;-80
2022/09/20 08:50:06;;;;;;;1.92;0.50;;;;;;;21.93;40.25;101040.53;5071544;28;20048;-80
2022/09/20 08:52:39;;;;;;;2.30;0.20;;;;;;;21.94;40.18;101033.00;5071375;28;20349;-81
2022/09/20 08:55:25;;;;;;;1.55;0.30;;;;;;;21.99;39.66;101036.38;5053543;28;20045;-80
2022/09/20 08:57:56;;;;;;;0.20;0.20;;;;;;;21.96;39.90;101028.72;5071445;28;20047;-80
2022/09/20 09:00:29;;;;;;;0.32;0.25;;;;;;;22.02;39.57;101029.28;5075395;28;20056;-80
2022/09/20 09:03:03;;;;;;;0.30;0.25;;;;;;;22.05;40.19;101030.56;5075124;28;20044;-80
2022/09/20 09:05:46;;;;;;;2.35;0.35;;;;;;;21.98;40.46;101037.53;5075104;28;20040;-80
2022/09/20 09:08:16;;;;;;;0.47;0.47;;;;;;;22.21;40.13;101042.66;5074831;28;20044;-79
2022/09/20 09:10:51;;;;;;;0.35;0.30;;;;;;;22.18;38.93;101031.41;5073854;28;20053;-81
2022/09/20 09:13:33;;;;;;;1.58;0.70;;;;;;;22.27;39.44;101032.91;5074947;28;20044;-81
2022/09/20 09:16:08;;;;;;;0.47;0.40;;;;;;;22.36;39.17;101043.09;5075200;28;20086;-81
2022/09/20 09:18:39;;;;;;;0.38;0.25;;;;;;;22.22;39.49;101035.09;5056292;28;20064;-81
2022/09/20 09:21:16;;;;;;;0.50;0.32;;;;;;;22.35;39.61;101033.94;5075030;28;20056;-81
2022/09/20 09:24:08;;;;;;;0.40;0.40;;;;;;;22.21;39.51;101039.03;5074781;28;20173;-80
2022/09/20 09:26:42;;;;;;;0.20;0.20;;;;;;;22.23;39.41;101028.34;5075066;28;20056;-81
2022/09/20 09:29:16;;;;;;;0.52;0.20;;;;;;;22.46;39.05;101025.91;5073734;28;20506;-81
2022/09/20 09:31:46;;;;;;;0.70;0.40;;;;;;;22.44;39.02;101025.44;5074638;28;20049;-80
2022/09/20 09:34:34;;;;;;;0.30;0.30;;;;;;;22.44;38.06;101025.44;5073411;28;20055;-81
2022/09/20 09:37:02;;;;;;;0.20;0.20;;;;;;;22.42;37.94;101016.59;5074934;28;20045;-80
2022/09/20 09:39:32;;;;;;;0.57;0.38;;;;;;;22.49;39.19;101016.03;5074704;28;20372;-80
2022/09/20 09:42:20;;;;;;;0.68;0.22;;;;;;;22.75;39.75;101012.03;5075083;28;20071;-80
2022/09/20 09:44:49;;;;;;;0.68;0.40;;;;;;;22.68;39.38;101005.06;5074522;28;20040;-80
2022/09/20 09:47:27;;;;;;;0.40;0.30;;;;;;;22.67;39.37;101022.16;5074303;28;20063;-80
2022/09/20 09:49:58;;;;;;;0.63;0.40;;;;;;;22.73;39.59;101009.59;5074317;28;20040;-80
2022/09/20 09:52:32;;;;;;;0.45;0.20;;;;;;;22.69;39.25;101003.91;5074203;28;20044;-80
2022/09/20 09:55:02;;;;;;;0.52;0.52;;;;;;;22.91;38.52;100998.13;5074070;28;20052;-81
2022/09/20 09:57:54;;;;;;;0.20;0.20;;;;;;;22.88;38.64;100998.84;5074179;28;20059;-80
2022/09/20 10:00:25;;;;;;;1.70;0.50;;;;;;;22.98;38.35;101000.31;5074230;28;20045;-80
2022/09/20 10:02:59;;;;;;;0.50;0.50;;;;;;;22.97;38.32;100993.91;5073997;28;20044;-80
2022/09/20 10:05:30;;;;;;;1.25;0.40;;;;;;;22.93;38.89;100995.81;5074036;28;20071;-80
2022/09/20 10:08:09;;;;;;;0.55;0.30;;;;;;;22.99;38.62;100991.59;5073822;28;20257;-80
2022/09/20 10:11:05;;;;;;;0.40;0.30;;;;;;;23.08;37.81;100995.03;5072943;28;20045;-80
2022/09/20 10:13:40;;;;;;;0.30;0.30;;;;;;;23.15;37.55;100988.03;5055207;28;20071;-80
2022/09/20 10:16:19;;;;;;;0.70;0.30;;;;;;;23.15;37.76;100985.25;5074230;28;20051;-81
2022/09/20 10:19:06;;;;;;;0.65;0.35;;;;;;;23.15;36.72;100974.06;5073758;28;20399;-81
2022/09/20 10:21:58;;;;;;;0.50;0.20;;;;;;;23.28;36.98;100984.03;5055642;28;20040;-80
2022/09/20 10:24:43;;;;;;;0.88;0.40;;;;;;;23.26;36.64;100983.56;5073485;28;20052;-80
2022/09/20 10:27:25;;;;;;;0.30;0.30;;;;;;;23.45;37.07;100977.31;5073517;28;20045;-80
2022/09/20 10:30:02;;;;;;;0.20;0.20;;;;;;;23.38;37.70;100976.31;5073656;28;20049;-80
2022/09/20 10:32:42;;;;;;;1.85;0.52;;;;;;;23.26;38.01;100974.38;5072083;28;20475;-81
2022/09/20 10:35:17;;;;;;;0.43;0.43;;;;;;;23.53;37.90;100972.72;5069294;28;20049;-79
2022/09/20 10:38:04;;;;;;;0.22;0.17;;;;;;;23.38;37.83;100973.50;5071530;28;20056;-80
2022/09/20 10:43:48;;;;;;;0.50;0.20;;;;;;;23.55;37.78;100964.78;5083675;28;20032;-79
2022/09/20 10:46:28;;;;;;;0.32;0.17;;;;;;;23.39;36.67;100969.53;5080560;28;20483;-81
2022/09/20 10:49:23;;;;;;;1.00;0.30;;;;;;;23.74;36.72;100971.63;5083659;28;20497;-81
2022/09/20 10:52:10;;;;;;;1.08;0.22;;;;;;;23.69;36.81;100963.50;5077731;28;20475;-81
2022/09/20 10:54:55;;;;;;;0.88;0.30;;;;;;;23.88;36.87;100972.00;5086615;28;20051;-81
2022/09/20 10:58:00;;;;;;;1.15;0.50;;;;;;;23.83;35.73;100969.47;5088107;28;20056;-81
2022/09/20 11:00:49;;;;;;;1.25;0.30;;;;;;;23.93;36.14;100951.34;5085860;28;20047;-81
2022/09/20 11:03:35;;;;;;;0.28;0.13;;;;;;;24.13;35.44;100954.19;5077709;28;20037;-81
2022/09/20 11:06:42;;;;;;;0.20;0.20;;;;;;;24.25;35.62;100962.47;5085843;28;20044;-80
2022/09/20 11:09:17;;;;;;;0.30;0.30;;;;;;;24.19;36.54;100957.53;5087572;28;20048;-80
2022/09/20 11:12:09;;;;;;;0.15;0.15;;;;;;;24.14;36.43;100959.44;5083847;28;20040;-81
2022/09/20 11:14:53;;;;;;;0.38;0.38;;;;;;;24.23;35.04;100958.41;5082395;28;20051;-79
2022/09/20 11:17:30;;;;;;;0.30;0.25;;;;;;;23.84;37.06;100951.53;5087277;28;20032;-81
2022/09/20 11:20:19;;;;;;;0.38;0.25;;;;;;;24.06;37.02;100954.84;5091809;28;20788;-80
2022/09/20 11:23:09;;;;;;;0.50;0.40;;;;;;;23.97;36.10;100959.81;5080282;28;20053;-80
2022/09/20 11:25:50;;;;;;;0.98;0.43;;;;;;;24.06;37.75;100954.84;5087259;28;20044;-80
2022/09/20 11:28:39;;;;;;;1.48;0.40;;;;;;;24.37;37.24;100946.75;5085171;28;20040;-80
2022/09/20 11:31:16;;;;;;;1.55;0.30;;;;;;;24.51;37.51;100957.44;5077115;28;20052;-79
2022/09/20 11:34:19;;;;;;;0.60;0.30;;;;;;;24.45;37.08;100947.72;5079719;28;20067;-80
2022/09/20 11:36:52;;;;;;;0.60;0.43;;;;;;;24.48;37.69;100935.81;5065099;28;20491;-80
2022/09/20 11:39:22;;;;;;;0.95;0.38;;;;;;;24.73;37.01;100946.69;5075382;28;20040;-80
2022/09/20 11:41:54;;;;;;;1.05;0.35;;;;;;;24.89;36.33;100946.63;5090549;28;20044;-80
2022/09/20 11:44:25;;;;;;;0.20;0.20;;;;;;;24.92;36.89;100931.91;5090005;28;20044;-80
2022/09/20 11:47:05;;;;;;;0.35;0.30;;;;;;;24.95;36.56;100925.56;5090453;28;20051;-80
2022/09/20 11:49:41;;;;;;;0.20;0.20;;;;;;;25.08;36.63;100938.19;5089671;28;20379;-80
2022/09/20 11:52:32;;;;;;;0.55;0.30;;;;;;;25.27;36.96;100938.53;5057940;28;20055;-80
2022/09/20 11:55:25;;;;;;;0.32;0.32;;;;;;;25.20;36.29;100928.00;5076394;28;20043;-78
2022/09/20 11:58:10;;;;;;;4.00;0.60;;;;;;;25.02;36.50;100930.50;5069310;28;20056;-80
2022/09/20 12:00:41;;;;;;;0.52;0.50;;;;;;;25.00;36.64;100910.44;5066370;28;20501;-79
2022/09/20 12:03:31;;;;;;;3.40;0.35;;;;;;;25.36;36.80;100927.88;5069923;28;20039;-79
2022/09/20 12:06:03;;;;;;;1.65;0.50;;;;;;;25.23;35.77;100924.47;5067163;28;20037;-78
2022/09/20 12:08:40;;;;;;;0.38;0.30;;;;;;;25.09;36.21;100925.81;5089057;28;20044;-79
2022/09/20 12:11:12;;;;;;;1.35;0.30;;;;;;;25.16;36.70;100919.53;5086285;28;20036;-79
2022/09/20 12:13:51;;;;;;;0.38;0.20;;;;;;;25.33;35.64;100909.81;5077145;28;20079;-79
2022/09/20 12:16:41;;;;;;;0.70;0.40;;;;;;;25.48;36.28;100913.66;5074146;28;20048;-78
2022/09/20 12:19:12;;;;;;;0.32;0.30;;;;;;;25.47;35.19;100908.47;5089234;28;20036;-79
2022/09/20 12:21:59;;;;;;;0.20;0.20;;;;;;;25.50;36.53;100916.91;5069377;28;20036;-79
2022/09/20 12:24:35;;;;;;;2.17;0.52;;;;;;;25.74;35.86;100903.72;5071542;28;20057;-79
2022/09/20 12:27:28;;;;;;;0.95;0.38;;;;;;;25.47;35.81;100903.66;5070365;28;20048;-80
2022/09/20 12:30:19;;;;;;;1.90;0.45;;;;;;;25.08;36.49;100901.00;5070788;28;20040;-79
2022/09/20 12:32:47;;;;;;;1.85;0.57;;;;;;;25.12;36.11;100890.66;5083617;28;20497;-80
2022/09/20 12:35:44;;;;;;;0.20;0.20;;;;;;;25.66;36.06;100899.16;5077401;28;20048;-80
2022/09/20 12:38:33;;;;;;;0.22;0.22;;;;;;;26.09;35.40;100884.19;5081319;28;20458;-80
2022/09/20 12:41:02;;;;;;;1.00;0.40;;;;;;;26.39;35.82;100900.22;5065506;28;20376;-80
2022/09/20 12:43:33;;;;;;;1.75;0.40;;;;;;;26.39;34.62;100891.81;5083106;28;20052;-80
2022/09/20 12:46:01;;;;;;;1.52;0.40;;;;;;;26.25;34.47;100892.44;5081771;28;20048;-81